»·PEaware :: SWA884 KSAN-KSFO

SWA884 :: KSAN-KSFO

FLIGHT INFORMATION

Flight Status: Arrived
Operator:
Southwest Airlines
More flights by this operator :: More flights under this callsign
Pilot: Maximilliano F. (23467)
Aircraft: BOEING 737-800
(B738)
More flights by this aircraft type
Origin: KSAN San Diego Intl-Lindbergh
United States
Destination: KSFO San Francisco Intl
United States
More flights between these airports :: More routes between these airports
Route: PADRZ2 IKAYE RIZIN SPLNT STOKD SERFR SERFR3
File this flight plan on PilotEdge
Remarks: RMK / SIMBRIEF
Altitude:
(Current/Filed)
36,000ft
Speed:
(Current/Filed)
459kts
Departed: 13-Oct-19 05:58 PM
Arrived: 13-Oct-19 07:04 PM
Distance/Time
Traveled:
388nm/1:06
Distance/Time
To Go:
Arrived

Flight Plot

Page will automatically refresh every two minutes.

Flight plan parsing failed; only flown route is shown


Map Options




Map Legend


Flown Route
Filed Route
Departure Airport
Arrival Airport
Navaid (VOR, NDB)
Fix

Horizontal Profiles

Position Reports

Time Latitude Longitude Heading Altitude Ground
Speed
13-Oct-19 17:42 32.732334 -117.195915 307 21ft 0kts
13-Oct-19 17:43 32.732334 -117.195915 307 21ft 0kts
13-Oct-19 17:44 32.732334 -117.195915 307 21ft 0kts
13-Oct-19 17:45 32.732334 -117.195915 307 21ft 0kts
13-Oct-19 17:46 32.732019 -117.195458 316 21ft 2kts
13-Oct-19 17:47 32.731929 -117.195361 320 21ft 0kts
13-Oct-19 17:48 32.731929 -117.195361 320 21ft 0kts
13-Oct-19 17:49 32.731929 -117.195361 320 21ft 0kts
13-Oct-19 17:50 32.731967 -117.195383 339 21ft 0kts
13-Oct-19 17:51 32.732718 -117.194510 30 21ft 5kts
13-Oct-19 17:52 32.733049 -117.191846 107 21ft 19kts
13-Oct-19 17:53 32.731604 -117.185875 106 20ft 18kts
13-Oct-19 17:54 32.730225 -117.180213 106 19ft 16kts
13-Oct-19 17:55 32.729520 -117.176685 73 23ft 0kts
13-Oct-19 17:56 32.729520 -117.176685 73 23ft 0kts
13-Oct-19 17:57 32.730584 -117.177439 286 24ft 41kts
13-Oct-19 17:58 32.742475 -117.225087 298 1636ft 197kts
13-Oct-19 17:59 32.783956 -117.271702 299 4842ft 206kts
13-Oct-19 18:00 32.809888 -117.332476 298 7792ft 212kts
13-Oct-19 18:01 32.847212 -117.390836 304 10027ft 249kts
13-Oct-19 18:02 32.892965 -117.464670 305 12259ft 305kts
13-Oct-19 18:03 32.950152 -117.548570 303 15296ft 337kts
13-Oct-19 18:05 33.006409 -117.640877 301 18357ft 356kts
13-Oct-19 18:06 33.068260 -117.733477 308 21538ft 371kts
13-Oct-19 18:07 33.149369 -117.816237 313 24423ft 387kts
13-Oct-19 18:08 33.230723 -117.904477 306 26854ft 397kts
13-Oct-19 18:09 33.307711 -117.998852 307 29153ft 408kts
13-Oct-19 18:10 33.388766 -118.095210 306 31292ft 416kts
13-Oct-19 18:11 33.471682 -118.193776 305 33401ft 421kts
13-Oct-19 18:12 33.554035 -118.292688 304 35464ft 419kts
13-Oct-19 18:13 33.637467 -118.393534 305 35931ft 428kts
13-Oct-19 18:14 33.720977 -118.494487 304 35932ft 427kts
13-Oct-19 18:15 33.804604 -118.595911 305 35932ft 427kts
13-Oct-19 18:16 33.885973 -118.694921 304 35944ft 425kts
13-Oct-19 18:17 33.969157 -118.796404 304 35944ft 426kts
13-Oct-19 18:18 34.052431 -118.898306 305 35943ft 429kts
13-Oct-19 18:19 34.135072 -119.000750 301 35936ft 423kts
13-Oct-19 18:20 34.198794 -119.118069 294 35931ft 417kts
13-Oct-19 18:21 34.260079 -119.237153 294 35931ft 417kts
13-Oct-19 18:22 34.321302 -119.356416 294 35930ft 418kts
13-Oct-19 18:22 34.372352 -119.456136 294 35929ft 418kts
13-Oct-19 18:24 34.455580 -119.587768 307 35930ft 431kts
13-Oct-19 18:25 34.538701 -119.689286 306 35938ft 430kts
13-Oct-19 18:26 34.622680 -119.792910 306 35939ft 430kts
13-Oct-19 18:26 34.692420 -119.879165 307 35938ft 430kts
13-Oct-19 18:27 34.776021 -119.982865 307 35935ft 429kts
13-Oct-19 18:28 34.859350 -120.086553 308 35938ft 428kts
13-Oct-19 18:30 34.956553 -120.207893 308 35950ft 428kts
13-Oct-19 18:30 35.025743 -120.294529 308 35954ft 428kts
13-Oct-19 18:31 35.108998 -120.397617 312 35952ft 430kts
13-Oct-19 18:32 35.188472 -120.485587 312 35949ft 430kts
13-Oct-19 18:33 35.276353 -120.584253 312 35948ft 430kts
13-Oct-19 18:34 35.363463 -120.682332 312 35955ft 429kts
13-Oct-19 18:35 35.451286 -120.781531 312 35938ft 429kts
13-Oct-19 18:36 35.543736 -120.874214 318 35918ft 431kts
13-Oct-19 18:37 35.639673 -120.963090 318 35918ft 431kts
13-Oct-19 18:38 35.734845 -121.051700 318 35923ft 429kts
13-Oct-19 18:39 35.829541 -121.140137 319 35929ft 427kts
13-Oct-19 18:40 35.923892 -121.228523 319 35947ft 424kts
13-Oct-19 18:41 36.017603 -121.316591 320 35473ft 431kts
13-Oct-19 18:42 36.114909 -121.401165 325 32769ft 433kts
13-Oct-19 18:43 36.215028 -121.479062 325 29878ft 436kts
13-Oct-19 18:44 36.314144 -121.556572 324 27495ft 408kts
13-Oct-19 18:45 36.408717 -121.630879 324 25157ft 415kts
13-Oct-19 18:46 36.502538 -121.704657 323 23068ft 382kts
13-Oct-19 18:47 36.588459 -121.772743 323 20874ft 363kts
13-Oct-19 18:48 36.672450 -121.839305 324 18757ft 362kts
13-Oct-19 18:49 36.762546 -121.898569 340 16621ft 371kts
13-Oct-19 18:50 36.858539 -121.926861 345 14841ft 340kts
13-Oct-19 18:51 36.951172 -121.952952 343 13057ft 338kts
13-Oct-19 18:52 37.038754 -121.986977 341 11310ft 335kts
13-Oct-19 18:53 37.121232 -122.019095 341 10370ft 288kts
13-Oct-19 18:54 37.196261 -122.048549 341 9355ft 290kts
13-Oct-19 18:55 37.270699 -122.077617 340 8103ft 268kts
13-Oct-19 18:56 37.345461 -122.107178 341 6607ft 276kts
13-Oct-19 18:57 37.418259 -122.133808 343 4885ft 274kts
13-Oct-19 18:58 37.489882 -122.158244 343 3606ft 248kts
13-Oct-19 18:59 37.542306 -122.197534 303 2914ft 196kts
13-Oct-19 19:00 37.567196 -122.252752 296 1932ft 164kts
13-Oct-19 19:01 37.586581 -122.298712 296 1112ft 144kts
13-Oct-19 19:02 37.605427 -122.343167 296 309ft 143kts
13-Oct-19 19:03 37.618794 -122.375566 285 22ft 30kts
13-Oct-19 19:04 37.617277 -122.379447 181 33ft 8kts
13-Oct-19 19:05 37.614266 -122.381202 208 34ft 14kts
13-Oct-19 19:06 37.610667 -122.384780 299 34ft 13kts
13-Oct-19 19:07 37.612055 -122.388560 299 32ft 9kts
13-Oct-19 19:08 37.612256 -122.389027 298 32ft 0kts

Navigation Log

Ident Type
Flight plan parsing failed, navigation log unavailable